Terminal Aerodrome Forecast
Issued by NWS Atlanta, GA

Home | Current Version | Previous Version | Text Only | Print | Product List | Glossary On
Versions: 1 2 3 4 5 6 7 8 9 10 11 12 13 14 15 16 17 18 19 20 21 22 23 24 25 26 27 28 29 30 31 32 33 34 35 36 37
000
FTUS42 KFFC 250338 AAB
TAFATL
TAF AMD
KATL 250338Z 2504/2606 14006KT P6SM SCT060
     FM250900 14006KT P6SM SCT012 BKN022
     FM251100 14006KT P6SM BKN012
     FM251400 16011KT P6SM BKN025
     FM251800 16011KT P6SM BKN040 PROB30 2522/2603 4SM -TSRA
      BKN035CB
     FM260300 14008KT 4SM -TSRA BKN025CB=

USA.gov is the U.S. government's official web portal to all federal, state and local government web resources and services.